Time;durP1;ratioP1;P1;durP2;ratioP2;P2;SDS_P1;SDS_P2;PMS_P1;PMS_P2;Temp;Humidity;BMP_temperature;BMP_pressure;BME280_temperature;BME280_humidity;BME280_pressure;Samples;Min_cycle;Max_cycle;Signal;HPM_P1;HPM_P2
2022/06/01 00:04:42;;;;;;;28.55;18.77;;;11.80;99.90;;;;;;21057222;28;20129;-54
2022/06/01 00:14:44;;;;;;;34.42;21.88;;;11.70;99.90;;;;;;21057292;28;20327;-54
2022/06/01 00:24:48;;;;;;;38.35;24.80;;;11.50;99.90;;;;;;21035807;28;20097;-54
2022/06/01 00:34:51;;;;;;;37.47;22.40;;;11.50;99.90;;;;;;21055445;28;20543;-53
2022/06/01 00:44:54;;;;;;;25.90;16.95;;;11.50;99.90;;;;;;21057043;28;20401;-53
2022/06/01 00:54:56;;;;;;;25.52;18.02;;;11.30;99.90;;;;;;21047523;28;20568;-54
2022/06/01 01:05:02;;;;;;;32.28;20.42;;;11.00;99.90;;;;;;21050329;28;20062;-52
2022/06/01 01:15:05;;;;;;;23.50;14.85;;;10.70;99.90;;;;;;21070908;28;20468;-54
2022/06/01 01:25:23;;;;;;;23.27;14.02;;;11.10;99.90;;;;;;21045440;28;20040;-54
2022/06/01 01:35:29;;;;;;;25.50;17.00;;;10.50;99.90;;;;;;21052787;28;20040;-51
2022/06/01 01:45:34;;;;;;;32.03;19.50;;;10.00;99.90;;;;;;21059814;28;20533;-52
2022/06/01 01:56:03;;;;;;;34.17;20.38;;;9.80;99.90;;;;;;21063888;28;20538;-53
2022/06/01 02:06:12;;;;;;;35.97;21.98;;;9.60;99.90;;;;;;21062003;28;20083;-53
2022/06/01 02:16:15;;;;;;;39.22;23.00;;;9.40;99.90;;;;;;21065816;28;20439;-53
2022/06/01 02:26:18;;;;;;;41.33;23.20;;;9.30;99.90;;;;;;21053201;28;20035;-57
2022/06/01 02:36:23;;;;;;;42.05;25.50;;;9.10;99.90;;;;;;21055410;28;20106;-51
2022/06/01 02:46:26;;;;;;;40.65;22.15;;;9.00;99.90;;;;;;20958713;28;20531;-56
2022/06/01 02:56:28;;;;;;;49.55;26.15;;;8.80;99.90;;;;;;20948840;28;20045;-58
2022/06/01 03:06:30;;;;;;;44.92;25.95;;;8.60;99.90;;;;;;20964666;28;20105;-56
2022/06/01 03:16:33;;;;;;;46.50;25.52;;;8.60;99.90;;;;;;20964068;28;20036;-59
2022/06/01 03:26:37;;;;;;;38.92;23.73;;;8.50;99.90;;;;;;20981633;28;20447;-56
2022/06/01 03:36:41;;;;;;;50.50;27.20;;;8.50;99.90;;;;;;20987397;28;20043;-50
2022/06/01 03:46:44;;;;;;;55.35;30.05;;;8.60;99.90;;;;;;21067694;28;20157;-55
2022/06/01 03:56:46;;;;;;;66.78;32.47;;;8.60;99.90;;;;;;21044741;28;20055;-49
2022/06/01 04:06:49;;;;;;;62.17;35.00;;;8.60;99.90;;;;;;21053485;28;20093;-59
2022/06/01 04:16:51;;;;;;;57.45;31.00;;;8.80;99.90;;;;;;21044062;28;20085;-53
2022/06/01 04:26:55;;;;;;;63.28;33.35;;;9.10;99.90;;;;;;21046977;28;20089;-57
2022/06/01 04:37:02;;;;;;;67.40;33.33;;;9.20;99.90;;;;;;21044208;28;20559;-57
2022/06/01 04:47:05;;;;;;;64.22;34.15;;;9.30;99.90;;;;;;21008360;28;20040;-57
2022/06/01 04:57:07;;;;;;;52.45;29.02;;;9.50;99.90;;;;;;21014069;28;20036;-57
2022/06/01 05:07:09;;;;;;;59.92;30.63;;;9.70;99.90;;;;;;21018193;28;20032;-57
2022/06/01 05:17:12;;;;;;;51.65;28.63;;;9.90;99.90;;;;;;20996593;28;20082;-50
2022/06/01 05:27:15;;;;;;;56.40;28.50;;;10.20;99.90;;;;;;21033873;28;20550;-53
2022/06/01 05:37:18;;;;;;;44.30;25.05;;;10.40;99.90;;;;;;21072315;28;20048;-58
2022/06/01 05:47:20;;;;;;;34.30;21.52;;;10.70;99.90;;;;;;21043561;28;20375;-55
2022/06/01 05:57:23;;;;;;;25.42;16.63;;;11.20;99.90;;;;;;21045899;28;20035;-58
2022/06/01 06:07:25;;;;;;;17.33;11.70;;;12.00;99.90;;;;;;21045662;28;20058;-58
2022/06/01 06:17:27;;;;;;;13.48;9.77;;;14.00;99.90;;;;;;21051884;28;20040;-57
2022/06/01 06:27:31;;;;;;;13.80;9.57;;;19.70;99.90;;;;;;21041328;28;20036;-57
2022/06/01 06:37:33;;;;;;;13.77;11.02;;;23.00;99.90;;;;;;21040198;28;20048;-59
2022/06/01 06:47:36;;;;;;;11.20;8.80;;;24.10;97.00;;;;;;21041506;28;20062;-59
2022/06/01 06:57:38;;;;;;;12.27;10.60;;;25.30;94.40;;;;;;21043048;28;20362;-59
2022/06/01 07:07:40;;;;;;;12.00;10.40;;;24.80;94.10;;;;;;21048663;28;20028;-61
2022/06/01 07:17:43;;;;;;;11.32;9.98;;;25.80;94.70;;;;;;21024583;28;20028;-55
2022/06/01 07:27:48;;;;;;;14.63;11.30;;;24.00;94.10;;;;;;21031826;28;20184;-54
2022/06/01 07:48:12;;;;;;;17.95;12.77;;;21.50;99.30;;;;;;21045282;28;20036;-60
2022/06/01 07:58:15;;;;;;;19.15;13.38;;;21.50;98.80;;;;;;21021552;28;20032;-57
2022/06/01 08:08:17;;;;;;;19.40;14.85;;;20.90;99.80;;;;;;21048314;28;20048;-60
2022/06/01 08:18:23;;;;;;;16.75;13.30;;;20.60;99.90;;;;;;21040706;28;20367;-56
2022/06/01 08:28:26;;;;;;;16.35;13.93;;;21.90;99.90;;;;;;21033753;28;20032;-57
2022/06/01 08:38:29;;;;;;;14.18;12.68;;;22.30;99.40;;;;;;21032480;28;20589;-61
2022/06/01 08:48:39;;;;;;;16.73;13.15;;;23.20;98.80;;;;;;21022531;28;20116;-61
2022/06/01 08:58:51;;;;;;;21.58;14.95;;;22.70;98.70;;;;;;21061546;28;20419;-57
2022/06/01 09:09:03;;;;;;;19.15;14.18;;;21.70;99.70;;;;;;21050325;28;20184;-62
2022/06/01 09:19:14;;;;;;;20.27;15.80;;;22.70;99.90;;;;;;21045456;28;20039;-58
2022/06/01 09:29:24;;;;;;;20.42;16.50;;;24.90;97.00;;;;;;21058300;28;20036;-62
2022/06/01 09:39:27;;;;;;;27.10;17.70;;;25.20;95.10;;;;;;21055485;28;20043;-57
2022/06/01 09:49:33;;;;;;;19.10;14.15;;;23.70;96.40;;;;;;21038945;28;20169;-64
2022/06/01 10:10:00;;;;;;;18.73;15.60;;;24.80;96.00;;;;;;21039043;28;20070;-58
2022/06/01 10:20:18;;;;;;;18.53;15.40;;;25.90;94.40;;;;;;21048205;28;20067;-64
2022/06/01 10:30:30;;;;;;;18.58;15.02;;;26.60;94.60;;;;;;21052304;28;20810;-63
2022/06/01 10:40:49;;;;;;;18.02;13.90;;;25.90;93.70;;;;;;21055068;28;20386;-64
2022/06/01 10:51:04;;;;;;;18.80;15.00;;;26.60;95.20;;;;;;21050691;28;20101;-61
2022/06/01 11:01:48;;;;;;;14.35;11.55;;;25.80;93.40;;;;;;21028493;28;20032;-61
2022/06/01 11:12:28;;;;;;;14.13;11.77;;;24.40;92.90;;;;;;21039309;28;20040;-63
2022/06/01 11:22:57;;;;;;;12.40;8.70;;;25.10;94.20;;;;;;21022479;28;20044;-63
2022/06/01 11:33:32;;;;;;;12.23;9.32;;;25.90;92.10;;;;;;21051035;28;20093;-62
2022/06/01 11:43:45;;;;;;;11.48;8.52;;;25.70;92.70;;;;;;21031645;28;20040;-63
2022/06/01 11:54:08;;;;;;;9.05;7.60;;;25.10;92.80;;;;;;21045428;28;20040;-62
2022/06/01 12:04:40;;;;;;;12.07;8.55;;;25.10;91.70;;;;;;21026918;28;20036;-63
2022/06/01 12:15:00;;;;;;;12.27;10.13;;;24.70;92.70;;;;;;21057179;28;20094;-63
2022/06/01 12:35:26;;;;;;;12.23;9.13;;;25.50;92.60;;;;;;21042263;28;20075;-61
2022/06/01 12:45:41;;;;;;;10.38;9.15;;;24.60;91.60;;;;;;21075017;28;20078;-60
2022/06/01 12:55:45;;;;;;;13.70;10.25;;;23.80;91.20;;;;;;21042426;28;20048;-60
2022/06/01 13:05:52;;;;;;;11.57;9.45;;;23.00;92.70;;;;;;21041973;28;20090;-60
2022/06/01 13:16:04;;;;;;;14.95;10.35;;;22.10;94.80;;;;;;21051639;28;20088;-58
2022/06/01 13:26:10;;;;;;;11.77;9.50;;;22.10;94.10;;;;;;21045234;28;20033;-61
2022/06/01 13:36:27;;;;;;;16.20;10.70;;;22.60;95.30;;;;;;21055249;28;20454;-60
2022/06/01 13:46:35;;;;;;;12.40;10.63;;;21.70;96.00;;;;;;21061690;28;20060;-61
2022/06/01 13:56:43;;;;;;;13.15;11.10;;;21.40;95.70;;;;;;21054754;28;20040;-61
2022/06/01 14:06:53;;;;;;;32.83;12.02;;;21.70;95.30;;;;;;21070846;28;20089;-60
2022/06/01 14:16:57;;;;;;;14.90;11.80;;;21.60;95.80;;;;;;21069626;28;20032;-59
2022/06/01 14:37:21;;;;;;;15.43;11.95;;;21.50;96.50;;;;;;21056517;28;20422;-57
2022/06/01 14:47:23;;;;;;;20.05;14.45;;;22.40;95.60;;;;;;21036604;28;20398;-59
2022/06/01 14:57:26;;;;;;;19.73;13.40;;;21.50;96.40;;;;;;21048262;28;20040;-59
2022/06/01 15:07:30;;;;;;;18.52;13.98;;;20.50;97.90;;;;;;21048834;28;20595;-60
2022/06/01 15:17:34;;;;;;;17.92;13.90;;;20.90;98.30;;;;;;21046554;28;20485;-59
2022/06/01 15:27:37;;;;;;;21.88;15.07;;;21.20;97.70;;;;;;21046739;28;20106;-57
2022/06/01 15:48:03;;;;;;;23.92;16.38;;;19.70;99.90;;;;;;21041596;28;20032;-59
2022/06/01 15:58:06;;;;;;;21.63;15.48;;;18.90;99.90;;;;;;21042651;28;20452;-58
2022/06/01 16:08:10;;;;;;;24.70;16.92;;;18.70;99.90;;;;;;21036547;28;20036;-59
2022/06/01 16:18:14;;;;;;;20.67;14.95;;;18.40;99.90;;;;;;21029901;28;20048;-59
2022/06/01 16:28:16;;;;;;;23.70;16.98;;;18.20;99.90;;;;;;21033292;28;20032;-56
2022/06/01 16:38:19;;;;;;;22.98;15.35;;;17.70;99.90;;;;;;21026253;28;20036;-58
2022/06/01 16:48:24;;;;;;;21.30;15.98;;;17.30;99.90;;;;;;21040903;28;20078;-56
2022/06/01 16:58:26;;;;;;;19.20;14.07;;;17.10;99.90;;;;;;21035084;28;20439;-56
2022/06/01 17:08:29;;;;;;;22.60;14.48;;;16.90;99.90;;;;;;21051711;28;20066;-58
2022/06/01 17:18:32;;;;;;;23.83;14.77;;;16.60;99.90;;;;;;21050349;28;20048;-59
2022/06/01 17:28:35;;;;;;;18.15;12.90;;;16.20;99.90;;;;;;21054474;28;20115;-58
2022/06/01 17:38:38;;;;;;;18.98;14.10;;;15.90;99.90;;;;;;21050484;28;20106;-58
2022/06/01 17:48:43;;;;;;;23.05;14.20;;;15.50;99.90;;;;;;21058265;28;20078;-56
2022/06/01 17:58:46;;;;;;;24.38;15.90;;;15.30;99.90;;;;;;21068790;28;20036;-58
2022/06/01 18:08:49;;;;;;;31.90;20.65;;;14.90;99.90;;;;;;21067687;28;20085;-58
2022/06/01 18:18:53;;;;;;;32.00;21.48;;;14.60;99.90;;;;;;21050044;28;20069;-58
2022/06/01 18:28:56;;;;;;;30.60;20.00;;;14.30;99.90;;;;;;21067195;28;20089;-58
2022/06/01 18:38:59;;;;;;;36.20;23.38;;;14.10;99.90;;;;;;21037224;28;20044;-57
2022/06/01 18:49:03;;;;;;;43.83;26.27;;;13.80;99.90;;;;;;20950377;28;20069;-57
2022/06/01 19:01:32;;;;;;;41.17;26.15;;;13.40;99.90;;;;;;20963423;28;20481;-57
2022/06/01 19:09:30;;;;;;;40.63;27.70;;;13.20;99.90;;;;;;20965621;28;20052;-58
2022/06/01 19:19:39;;;;;;;35.13;22.80;;;13.00;99.90;;;;;;20964539;28;20113;-52
2022/06/01 19:29:46;;;;;;;37.50;23.40;;;12.90;99.90;;;;;;20963343;28;20090;-58
2022/06/01 19:50:11;;;;;;;32.25;19.77;;;12.80;99.90;;;;;;21045746;28;20032;-57
2022/06/01 20:00:14;;;;;;;32.03;19.60;;;12.80;99.90;;;;;;21045496;28;20090;-57
2022/06/01 20:10:18;;;;;;;26.98;19.13;;;12.80;99.90;;;;;;21030848;28;20040;-58
2022/06/01 20:20:22;;;;;;;31.30;22.02;;;13.40;99.90;;;;;;21047971;28;20036;-58
2022/06/01 20:30:25;;;;;;;30.85;20.73;;;13.60;99.90;;;;;;21046169;28;20097;-57
2022/06/01 20:40:28;;;;;;;27.55;20.17;;;13.40;99.90;;;;;;21063736;28;20044;-57
2022/06/01 20:50:31;;;;;;;24.42;16.13;;;13.50;99.90;;;;;;21070403;28;20491;-58
2022/06/01 21:00:34;;;;;;;21.70;15.63;;;13.50;99.90;;;;;;21063070;28;20485;-58
2022/06/01 21:10:37;;;;;;;19.63;14.60;;;14.40;99.90;;;;;;21061321;28;20040;-54
2022/06/01 21:20:40;;;;;;;20.70;14.95;;;14.40;99.90;;;;;;21064071;28;20044;-58
2022/06/01 21:30:44;;;;;;;27.95;19.58;;;13.60;99.90;;;;;;21058476;28;20442;-57
2022/06/01 21:40:46;;;;;;;30.63;19.85;;;12.90;99.90;;;;;;21089930;28;20081;-57
2022/06/01 21:50:50;;;;;;;23.27;13.98;;;12.40;99.90;;;;;;20986340;28;20422;-57
2022/06/01 22:00:56;;;;;;;23.40;15.80;;;12.20;99.90;;;;;;21002757;28;20542;-58
2022/06/01 22:21:22;;;;;;;24.13;17.70;;;11.80;99.90;;;;;;21001818;28;20040;-54
2022/06/01 22:31:26;;;;;;;20.98;13.30;;;11.60;99.90;;;;;;21055550;28;20088;-58
2022/06/01 22:41:52;;;;;;;18.13;12.40;;;11.60;99.90;;;;;;21010333;28;20057;-53
2022/06/01 22:51:54;;;;;;;10.88;8.45;;;11.90;99.90;;;;;;20981906;28;20107;-58
2022/06/01 23:01:57;;;;;;;24.58;16.25;;;12.20;99.90;;;;;;20966182;28;20126;-58
2022/06/01 23:12:00;;;;;;;32.35;14.45;;;12.30;99.90;;;;;;20964691;28;20452;-58
2022/06/01 23:22:04;;;;;;;25.08;17.88;;;12.20;99.90;;;;;;20982993;28;20033;-58
2022/06/01 23:32:37;;;;;;;23.40;16.27;;;12.30;99.90;;;;;;20979974;28;20036;-58
2022/06/01 23:43:19;;;;;;;30.60;20.25;;;12.30;99.90;;;;;;21021453;28;20036;-52
2022/06/01 23:53:37;;;;;;;32.83;24.13;;;11.90;99.90;;;;;;21046003;28;20028;-57
